createdAt,value
2019-03-13T00:00:30.067Z,60.70
2019-03-13T00:02:58.551Z,63.40
2019-03-13T00:05:26.948Z,66.00
2019-03-13T00:07:55.367Z,66.90
2019-03-13T00:10:23.784Z,68.10
2019-03-13T00:12:52.456Z,68.80
2019-03-13T00:15:20.924Z,69.70
2019-03-13T00:17:49.367Z,71.40
2019-03-13T00:20:17.773Z,73.40
2019-03-13T00:22:46.165Z,75.10
2019-03-13T00:25:14.563Z,76.50
2019-03-13T00:27:42.965Z,77.50
2019-03-13T00:30:12.743Z,79.40
2019-03-13T00:32:41.144Z,80.10
2019-03-13T00:35:10.501Z,81.20
2019-03-13T00:37:38.895Z,83.60
2019-03-13T00:40:11.468Z,85.10
2019-03-13T00:42:39.867Z,86.90
2019-03-13T00:45:14.005Z,88.20
2019-03-13T00:47:42.402Z,89.30
2019-03-13T00:50:27.954Z,90.00
2019-03-13T00:52:56.362Z,90.20
2019-03-13T00:55:24.795Z,90.60
2019-03-13T00:57:53.218Z,90.60
2019-03-13T01:00:38.812Z,90.70
2019-03-13T01:03:08.863Z,90.90
2019-03-13T01:05:38.891Z,90.40
2019-03-13T01:08:07.304Z,89.90
2019-03-13T01:10:35.705Z,89.50
2019-03-13T01:13:04.085Z,89.40
2019-03-13T01:15:32.490Z,89.90
2019-03-13T01:18:00.883Z,90.10
2019-03-13T01:20:29.292Z,90.50
2019-03-13T01:22:57.679Z,90.70
2019-03-13T01:25:26.087Z,90.90
2019-03-13T01:27:54.487Z,91.00
2019-03-13T01:30:22.882Z,91.20
2019-03-13T01:32:52.905Z,91.10
2019-03-13T01:35:28.949Z,91.30
2019-03-13T01:37:57.363Z,91.50
2019-03-13T01:40:25.741Z,91.50
2019-03-13T01:42:54.150Z,91.80
2019-03-13T01:45:22.688Z,92.00
2019-03-13T01:47:51.093Z,92.10
2019-03-13T01:50:19.490Z,92.30
2019-03-13T01:52:47.886Z,92.40
2019-03-13T01:55:16.290Z,92.50
2019-03-13T01:57:44.713Z,92.40
2019-03-13T02:00:14.839Z,92.60
2019-03-13T02:02:43.243Z,92.80
2019-03-13T02:05:11.703Z,92.60
2019-03-13T02:07:40.184Z,92.50
2019-03-13T02:10:11.039Z,92.50
2019-03-13T02:12:39.458Z,92.50
2019-03-13T02:15:10.375Z,92.20
2019-03-13T02:17:38.769Z,92.40
2019-03-13T02:20:09.628Z,92.50
2019-03-13T02:22:38.025Z,92.60
2019-03-13T02:25:08.955Z,92.40
2019-03-13T02:27:38.143Z,92.40
2019-03-13T02:30:15.313Z,92.60
2019-03-13T02:32:43.717Z,92.60
2019-03-13T02:35:12.129Z,92.60
2019-03-13T02:37:40.552Z,92.50
2019-03-13T02:40:11.147Z,92.70
2019-03-13T02:42:39.565Z,92.30
2019-03-13T02:45:10.195Z,91.90
2019-03-13T02:47:39.230Z,91.50
2019-03-13T02:50:10.721Z,91.10
2019-03-13T02:52:39.120Z,91.10
2019-03-13T02:55:09.180Z,91.10
2019-03-13T02:57:37.761Z,91.10
2019-03-13T03:00:16.099Z,91.10
2019-03-13T03:02:46.141Z,91.20
2019-03-13T03:05:14.625Z,91.30
2019-03-13T03:07:43.011Z,91.40
2019-03-13T03:10:12.759Z,91.50
2019-03-13T03:12:42.031Z,91.60
2019-03-13T03:15:13.546Z,91.90
2019-03-13T03:17:42.002Z,92.10
2019-03-13T03:20:13.158Z,92.40
2019-03-13T03:22:41.535Z,92.50
2019-03-13T03:25:12.577Z,92.80
2019-03-13T03:27:40.968Z,93.10
2019-03-13T03:30:25.102Z,93.40
2019-03-13T03:32:53.517Z,93.70
2019-03-13T03:35:21.934Z,94.10
2019-03-13T03:37:50.314Z,94.30
2019-03-13T03:40:22.969Z,94.50
2019-03-13T03:42:50.224Z,94.70
2019-03-13T03:45:19.109Z,95.10
2019-03-13T03:47:47.560Z,95.30
2019-03-13T03:50:17.088Z,95.70
2019-03-13T03:52:45.836Z,96.10
2019-03-13T03:55:15.393Z,96.40
2019-03-13T03:57:43.847Z,96.90
2019-03-13T04:00:19.989Z,97.00
2019-03-13T04:02:48.474Z,97.20
2019-03-13T04:05:17.082Z,97.10
2019-03-13T04:07:45.515Z,97.20
2019-03-13T04:10:15.836Z,97.20
2019-03-13T04:12:44.382Z,97.30
2019-03-13T04:15:16.928Z,97.20
2019-03-13T04:17:45.353Z,97.10
2019-03-13T04:20:17.862Z,96.60
2019-03-13T04:22:46.251Z,96.30
2019-03-13T04:25:26.487Z,95.90
2019-03-13T04:27:55.021Z,95.70
2019-03-13T04:30:23.487Z,95.90
2019-03-13T04:32:51.908Z,96.40
2019-03-13T04:35:20.301Z,97.40
2019-03-13T04:37:48.721Z,98.00
2019-03-13T04:40:17.200Z,98.40
2019-03-13T04:42:45.594Z,98.80
2019-03-13T04:45:14.084Z,99.40
2019-03-13T04:47:42.487Z,99.60
2019-03-13T04:50:12.239Z,99.90
2019-03-13T04:52:40.643Z,99.90
2019-03-13T04:55:10.697Z,99.90
2019-03-13T04:57:39.093Z,99.90
2019-03-13T05:00:15.318Z,99.90
2019-03-13T05:02:43.729Z,99.90
2019-03-13T05:05:36.437Z,99.90
2019-03-13T05:08:04.825Z,99.90
2019-03-13T05:10:33.243Z,99.90
2019-03-13T05:13:01.681Z,99.90
2019-03-13T05:15:30.224Z,99.90
2019-03-13T05:17:58.642Z,99.90
2019-03-13T05:20:27.052Z,99.90
2019-03-13T05:22:55.457Z,99.90
2019-03-13T05:25:23.859Z,99.90
2019-03-13T05:27:52.252Z,99.90
2019-03-13T05:30:20.658Z,99.90
2019-03-13T05:32:49.075Z,99.90
2019-03-13T05:35:17.500Z,99.90
2019-03-13T05:37:45.899Z,99.90
2019-03-13T05:40:14.375Z,99.90
2019-03-13T05:42:42.780Z,99.90
2019-03-13T05:45:11.331Z,99.90
2019-03-13T05:47:39.763Z,99.90
2019-03-13T05:50:10.246Z,99.90
2019-03-13T05:52:38.633Z,99.90
2019-03-13T05:55:07.121Z,99.90
2019-03-13T05:57:35.528Z,99.90
2019-03-13T06:00:07.485Z,99.90
2019-03-13T06:02:35.878Z,99.90
2019-03-13T06:05:06.323Z,99.90
2019-03-13T06:07:34.785Z,99.90
2019-03-13T06:10:04.449Z,99.90
2019-03-13T06:12:32.842Z,99.90
2019-03-13T06:15:03.646Z,99.90
2019-03-13T06:17:31.367Z,99.90
2019-03-13T06:19:59.765Z,99.90
2019-03-13T06:22:28.162Z,99.90
2019-03-13T06:24:56.553Z,99.90
2019-03-13T06:27:24.963Z,99.90
2019-03-13T06:29:53.345Z,99.90
2019-03-13T06:32:21.762Z,99.90
2019-03-13T06:34:50.165Z,99.90
2019-03-13T06:37:18.594Z,99.90
2019-03-13T06:39:47.047Z,99.90
2019-03-13T06:42:15.452Z,99.90
2019-03-13T06:44:43.843Z,99.90
2019-03-13T06:47:12.251Z,99.90
2019-03-13T06:49:40.657Z,99.90
2019-03-13T06:52:09.062Z,99.90
2019-03-13T06:54:37.805Z,99.90
2019-03-13T06:57:06.210Z,99.90
2019-03-13T06:59:36.253Z,99.90
2019-03-13T07:02:09.083Z,99.90
2019-03-13T07:04:42.168Z,99.90
2019-03-13T07:07:17.904Z,99.90
2019-03-13T07:09:47.935Z,99.90
2019-03-13T07:12:17.992Z,99.90
2019-03-13T07:14:56.884Z,99.40
2019-03-13T07:17:29.583Z,99.00
2019-03-13T07:20:02.786Z,98.80
2019-03-13T07:22:35.781Z,98.20
2019-03-13T07:25:18.086Z,97.90
2019-03-13T07:28:04.627Z,97.70
2019-03-13T07:30:46.770Z,96.80
2019-03-13T07:33:16.809Z,96.40
2019-03-13T07:35:52.616Z,96.20
2019-03-13T07:38:22.652Z,96.20
2019-03-13T07:41:09.340Z,95.60
2019-03-13T07:43:42.415Z,95.60
2019-03-13T07:46:18.256Z,94.90
2019-03-13T07:48:48.313Z,95.10
2019-03-13T07:51:27.178Z,94.90
2019-03-13T07:54:05.991Z,94.50
2019-03-13T07:56:36.040Z,94.10
2019-03-13T07:59:15.111Z,93.30
2019-03-13T08:01:45.161Z,92.80
2019-03-13T08:04:18.063Z,93.10
2019-03-13T08:06:50.863Z,93.10
2019-03-13T08:09:37.482Z,93.00
2019-03-13T08:12:23.975Z,92.30
2019-03-13T08:14:54.077Z,92.20
2019-03-13T08:17:33.218Z,91.90
2019-03-13T08:20:12.310Z,90.90
2019-03-13T08:22:48.527Z,90.90
2019-03-13T08:25:30.608Z,90.50
2019-03-13T08:28:06.198Z,90.70
2019-03-13T08:30:38.945Z,90.30
2019-03-13T08:33:17.701Z,90.20
2019-03-13T08:36:04.025Z,89.30
2019-03-13T08:38:40.312Z,89.40
2019-03-13T08:41:10.345Z,88.90
2019-03-13T08:43:55.702Z,87.90
2019-03-13T08:46:34.912Z,87.00
2019-03-13T08:49:07.438Z,86.40
2019-03-13T08:51:46.449Z,87.30
2019-03-13T08:54:34.591Z,87.30
2019-03-13T08:57:13.461Z,87.40
2019-03-13T08:59:55.664Z,86.70
2019-03-13T09:02:25.711Z,85.80
2019-03-13T09:05:10.812Z,85.80
2019-03-13T09:07:40.878Z,85.70
2019-03-13T09:10:22.930Z,85.10
2019-03-13T09:13:08.406Z,83.40
2019-03-13T09:15:55.009Z,84.00
2019-03-13T09:18:25.046Z,80.90
2019-03-13T09:20:55.092Z,79.60
2019-03-13T09:23:41.842Z,77.70
2019-03-13T09:26:14.605Z,78.40
2019-03-13T09:28:56.865Z,76.40
2019-03-13T09:31:29.663Z,76.90
2019-03-13T09:34:11.776Z,76.10
2019-03-13T09:36:50.855Z,75.30
2019-03-13T09:39:26.660Z,75.30
2019-03-13T09:41:56.686Z,76.20
2019-03-13T09:44:26.748Z,77.00
2019-03-13T09:47:11.524Z,77.10
2019-03-13T09:49:59.830Z,77.80
2019-03-13T09:52:46.339Z,77.80
2019-03-13T09:55:24.981Z,78.30
2019-03-13T09:58:11.039Z,78.40
2019-03-13T10:01:04.884Z,76.30
2019-03-13T10:03:51.267Z,75.60
2019-03-13T10:06:30.614Z,75.30
2019-03-13T10:09:16.822Z,74.20
2019-03-13T10:11:46.860Z,72.60
2019-03-13T10:14:33.408Z,72.40
2019-03-13T10:17:10.697Z,71.30
2019-03-13T10:19:50.132Z,70.30
2019-03-13T10:22:25.906Z,69.80
2019-03-13T10:25:04.728Z,70.50
2019-03-13T10:27:40.247Z,68.90
2019-03-13T10:30:28.333Z,68.90
2019-03-13T10:32:58.385Z,68.50
2019-03-13T10:35:46.250Z,68.70
2019-03-13T10:38:16.306Z,68.40
2019-03-13T10:40:46.405Z,67.70
2019-03-13T10:43:25.661Z,67.70
2019-03-13T10:46:01.418Z,69.00
2019-03-13T10:48:47.439Z,69.20
2019-03-13T10:51:23.469Z,66.50
2019-03-13T10:53:53.523Z,67.00
2019-03-13T10:56:26.125Z,66.40
2019-03-13T10:59:05.213Z,64.50
2019-03-13T11:01:38.423Z,64.10
2019-03-13T11:04:19.301Z,63.60
2019-03-13T11:06:55.609Z,65.00
2019-03-13T11:09:28.522Z,67.40
2019-03-13T11:12:04.709Z,68.20
2019-03-13T11:14:34.766Z,69.10
2019-03-13T11:17:10.767Z,69.10
2019-03-13T11:19:40.811Z,66.10
2019-03-13T11:22:10.861Z,64.10
2019-03-13T11:24:40.894Z,63.20
2019-03-13T11:27:27.035Z,61.70
2019-03-13T11:29:57.070Z,59.60
2019-03-13T11:32:27.173Z,60.90
2019-03-13T11:35:14.777Z,60.90
2019-03-13T11:37:57.152Z,60.60
2019-03-13T11:40:27.205Z,60.40
2019-03-13T11:43:03.207Z,61.40
2019-03-13T11:45:51.478Z,62.00
2019-03-13T11:48:21.511Z,62.50
2019-03-13T11:51:08.027Z,63.40
2019-03-13T11:53:54.403Z,64.90
2019-03-13T11:56:40.969Z,65.70
2019-03-13T11:59:16.810Z,64.50
2019-03-13T12:01:55.950Z,63.60
2019-03-13T12:04:41.265Z,63.90
2019-03-13T12:07:11.283Z,63.70
2019-03-13T12:09:49.992Z,65.10
2019-03-13T12:12:28.989Z,66.20
2019-03-13T12:15:15.215Z,67.50
2019-03-13T12:17:51.049Z,68.20
2019-03-13T12:20:24.048Z,69.90
2019-03-13T12:22:56.802Z,68.50
2019-03-13T12:25:45.381Z,68.10
2019-03-13T12:28:18.127Z,68.60
2019-03-13T12:30:50.591Z,67.70
2019-03-13T12:33:36.655Z,66.40
2019-03-13T12:36:12.933Z,67.10
2019-03-13T12:38:42.977Z,65.80
2019-03-13T12:41:27.736Z,64.70
2019-03-13T12:44:16.150Z,64.40
2019-03-13T12:47:01.024Z,65.20
2019-03-13T12:49:42.985Z,67.30
2019-03-13T12:52:25.106Z,69.00
2019-03-13T12:54:55.139Z,69.30
2019-03-13T12:57:40.385Z,71.10
2019-03-13T13:00:18.992Z,71.10
2019-03-13T13:02:49.015Z,71.30
2019-03-13T13:05:19.051Z,70.20
2019-03-13T13:07:58.077Z,70.10
2019-03-13T13:10:34.372Z,69.10
2019-03-13T13:13:07.298Z,68.20
2019-03-13T13:15:40.067Z,68.60
2019-03-13T13:18:10.104Z,68.90
2019-03-13T13:20:38.494Z,69.50
2019-03-13T13:23:06.893Z,72.10
2019-03-13T13:25:35.292Z,75.10
2019-03-13T13:28:03.772Z,81.10
2019-03-13T13:30:32.294Z,86.40
2019-03-13T13:33:00.689Z,89.80
2019-03-13T13:35:29.110Z,92.70
2019-03-13T13:37:57.528Z,97.70
2019-03-13T13:40:25.919Z,99.30
2019-03-13T13:42:54.331Z,99.90
2019-03-13T13:45:33.303Z,99.90
2019-03-13T13:48:02.364Z,99.90
2019-03-13T13:50:30.759Z,99.90
2019-03-13T13:52:59.190Z,99.90
2019-03-13T13:55:27.575Z,99.90
2019-03-13T13:57:56.058Z,99.90
2019-03-13T14:00:24.445Z,99.90
2019-03-13T14:02:52.865Z,99.90
2019-03-13T14:05:21.251Z,99.40
2019-03-13T14:07:49.665Z,97.50
2019-03-13T14:10:18.061Z,99.90
2019-03-13T14:12:46.463Z,96.80
2019-03-13T14:15:15.591Z,94.80
2019-03-13T14:17:43.989Z,94.50
2019-03-13T14:20:14.228Z,93.20
2019-03-13T14:22:42.626Z,93.40
2019-03-13T14:25:12.263Z,93.10
2019-03-13T14:27:41.574Z,92.30
2019-03-13T14:30:18.252Z,92.50
2019-03-13T14:32:47.005Z,92.10
2019-03-13T14:35:15.399Z,91.30
2019-03-13T14:37:43.817Z,91.40
2019-03-13T14:40:14.909Z,91.30
2019-03-13T14:42:43.320Z,90.10
2019-03-13T14:45:17.675Z,89.30
2019-03-13T14:47:46.115Z,88.50
2019-03-13T14:50:22.547Z,87.80
2019-03-13T14:52:50.955Z,87.60
2019-03-13T14:55:19.709Z,86.00
2019-03-13T14:57:48.189Z,86.00
2019-03-13T15:00:24.530Z,86.10
2019-03-13T15:02:53.016Z,84.40
2019-03-13T15:05:21.609Z,82.80
2019-03-13T15:07:50.096Z,80.90
2019-03-13T15:10:20.840Z,78.90
2019-03-13T15:12:49.528Z,76.90
2019-03-13T15:15:22.133Z,79.10
2019-03-13T15:17:53.214Z,79.40
2019-03-13T15:20:23.172Z,79.70
2019-03-13T15:22:51.696Z,80.20
2019-03-13T15:25:20.381Z,80.80
2019-03-13T15:27:48.873Z,81.90
2019-03-13T15:30:19.922Z,81.90
2019-03-13T15:32:48.390Z,84.50
2019-03-13T15:35:17.020Z,84.60
2019-03-13T15:37:45.527Z,84.70
2019-03-13T15:40:15.842Z,83.50
2019-03-13T15:42:44.493Z,81.20
2019-03-13T15:45:18.984Z,81.10
2019-03-13T15:47:47.499Z,80.60
2019-03-13T15:50:17.197Z,78.70
2019-03-13T15:52:45.825Z,78.70
2019-03-13T15:55:16.603Z,78.00
2019-03-13T15:57:44.999Z,77.70
2019-03-13T16:00:21.517Z,77.10
2019-03-13T16:02:50.064Z,77.70
2019-03-13T16:05:18.538Z,78.10
2019-03-13T16:07:46.999Z,75.40
2019-03-13T16:10:17.615Z,75.60
2019-03-13T16:12:46.078Z,76.20
2019-03-13T16:15:20.676Z,75.50
2019-03-13T16:17:49.071Z,75.90
2019-03-13T16:20:19.099Z,76.20
2019-03-13T16:22:51.887Z,76.20
2019-03-13T16:25:20.303Z,76.80
2019-03-13T16:27:48.709Z,76.80
2019-03-13T16:30:35.623Z,78.70
2019-03-13T16:33:04.020Z,78.90
2019-03-13T16:35:32.481Z,79.20
2019-03-13T16:38:00.870Z,80.10
2019-03-13T16:40:31.724Z,80.60
2019-03-13T16:42:59.402Z,79.70
2019-03-13T16:45:27.865Z,79.80
2019-03-13T16:47:56.275Z,79.20
2019-03-13T16:50:33.503Z,79.40
2019-03-13T16:53:01.960Z,80.00
2019-03-13T16:55:30.429Z,79.60
2019-03-13T16:57:58.826Z,80.00
2019-03-13T17:00:31.393Z,80.30
2019-03-13T17:02:59.910Z,80.70
2019-03-13T17:05:28.309Z,81.00
2019-03-13T17:07:56.794Z,81.50
2019-03-13T17:10:26.340Z,82.20
2019-03-13T17:12:55.216Z,82.00
2019-03-13T17:15:24.717Z,82.50
2019-03-13T17:17:53.938Z,83.50
2019-03-13T17:20:36.309Z,84.10
2019-03-13T17:23:04.977Z,85.10
2019-03-13T17:25:33.438Z,85.90
2019-03-13T17:28:01.845Z,86.10
2019-03-13T17:30:33.355Z,86.40
2019-03-13T17:33:01.893Z,87.10
2019-03-13T17:35:30.448Z,86.90
2019-03-13T17:37:59.785Z,87.70
2019-03-13T17:40:29.635Z,87.40
2019-03-13T17:42:58.020Z,87.50
2019-03-13T17:45:26.616Z,87.80
2019-03-13T17:47:55.178Z,87.90
2019-03-13T17:50:24.719Z,88.00
2019-03-13T17:52:53.179Z,88.00
2019-03-13T17:55:25.769Z,88.10
2019-03-13T17:57:54.150Z,88.40
2019-03-13T18:00:32.887Z,87.50
2019-03-13T18:03:01.285Z,87.60
2019-03-13T18:05:29.687Z,87.70
2019-03-13T18:07:58.075Z,87.60
2019-03-13T18:10:26.546Z,87.40
2019-03-13T18:12:54.929Z,87.40
2019-03-13T18:15:23.418Z,87.30
2019-03-13T18:17:51.904Z,87.00
2019-03-13T18:20:22.818Z,87.10
2019-03-13T18:22:51.206Z,87.70
2019-03-13T18:25:19.695Z,87.90
2019-03-13T18:27:48.082Z,87.70
2019-03-13T18:30:21.825Z,88.30
2019-03-13T18:32:50.366Z,88.70
2019-03-13T18:35:19.609Z,89.70
2019-03-13T18:37:48.230Z,90.30
2019-03-13T18:40:18.471Z,90.40
2019-03-13T18:42:46.999Z,90.50
2019-03-13T18:45:18.500Z,90.50
2019-03-13T18:47:46.872Z,90.70
2019-03-13T18:50:16.512Z,90.80
2019-03-13T18:52:44.981Z,91.10
2019-03-13T18:55:15.914Z,92.10
2019-03-13T18:57:44.372Z,92.40
2019-03-13T19:00:21.468Z,93.00
2019-03-13T19:02:49.930Z,93.50
2019-03-13T19:05:18.332Z,94.00
2019-03-13T19:07:46.795Z,94.80
2019-03-13T19:10:20.188Z,95.30
2019-03-13T19:12:48.660Z,95.40
2019-03-13T19:15:19.780Z,96.30
2019-03-13T19:17:48.303Z,96.90
2019-03-13T19:20:25.136Z,97.00
2019-03-13T19:22:53.669Z,97.40
2019-03-13T19:25:22.122Z,98.60
2019-03-13T19:27:50.591Z,99.70
2019-03-13T19:30:24.429Z,99.90
2019-03-13T19:32:52.807Z,99.90
2019-03-13T19:35:21.236Z,99.90
2019-03-13T19:37:49.634Z,99.90
2019-03-13T19:40:20.366Z,99.90
2019-03-13T19:42:48.769Z,99.90
2019-03-13T19:45:35.039Z,99.90
2019-03-13T19:48:03.417Z,99.90
2019-03-13T19:50:32.015Z,99.90
2019-03-13T19:53:00.417Z,99.90
2019-03-13T19:55:28.819Z,99.90
2019-03-13T19:57:57.282Z,99.90
2019-03-13T20:00:26.117Z,99.90
2019-03-13T20:03:00.854Z,99.90
2019-03-13T20:05:29.521Z,99.90
2019-03-13T20:07:57.939Z,99.90
2019-03-13T20:10:27.566Z,99.90
2019-03-13T20:12:56.059Z,99.90
2019-03-13T20:15:26.477Z,99.90
2019-03-13T20:17:54.878Z,99.90
2019-03-13T20:20:24.121Z,99.90
2019-03-13T20:22:57.032Z,99.90
2019-03-13T20:25:25.164Z,99.90
2019-03-13T20:27:54.900Z,99.90
2019-03-13T20:30:24.203Z,99.90
2019-03-13T20:32:52.615Z,99.90
2019-03-13T20:35:21.015Z,99.90
2019-03-13T20:37:49.517Z,99.90
2019-03-13T20:40:19.943Z,99.90
2019-03-13T20:42:48.717Z,99.90
2019-03-13T20:45:24.953Z,99.90
2019-03-13T20:47:53.437Z,99.90
2019-03-13T20:50:35.171Z,99.90
2019-03-13T20:52:52.692Z,99.90
2019-03-13T20:55:22.240Z,99.90
2019-03-13T20:57:50.739Z,99.90
2019-03-13T21:00:28.727Z,99.90
2019-03-13T21:02:57.980Z,99.90
2019-03-13T21:05:26.514Z,99.90
2019-03-13T21:08:14.263Z,99.90
2019-03-13T21:10:42.676Z,99.90
2019-03-13T21:13:11.113Z,99.90
2019-03-13T21:15:39.523Z,99.90
2019-03-13T21:18:07.931Z,99.90
2019-03-13T21:20:36.323Z,99.90
2019-03-13T21:23:04.736Z,99.90
2019-03-13T21:25:33.134Z,99.90
2019-03-13T21:28:01.539Z,99.90
2019-03-13T21:30:30.129Z,99.90
2019-03-13T21:32:58.526Z,99.90
2019-03-13T21:35:26.915Z,99.90
2019-03-13T21:37:55.392Z,99.90
2019-03-13T21:40:25.035Z,99.90
2019-03-13T21:42:54.853Z,99.90
2019-03-13T21:45:23.882Z,99.90
2019-03-13T21:47:52.550Z,99.90
2019-03-13T21:50:21.096Z,99.90
2019-03-13T21:52:49.653Z,99.90
2019-03-13T21:55:18.871Z,99.90
2019-03-13T21:57:47.532Z,99.90
2019-03-13T22:00:26.338Z,99.90
2019-03-13T22:02:54.978Z,99.90
2019-03-13T22:05:26.601Z,99.90
2019-03-13T22:07:53.986Z,99.90
2019-03-13T22:10:22.438Z,99.90
2019-03-13T22:12:51.283Z,99.90
2019-03-13T22:15:21.133Z,99.90
2019-03-13T22:17:49.604Z,99.90
2019-03-13T22:20:19.151Z,99.90
2019-03-13T22:22:47.634Z,99.90
2019-03-13T22:25:17.376Z,99.90
2019-03-13T22:27:45.793Z,99.90
2019-03-13T22:30:28.221Z,99.90
2019-03-13T22:32:55.093Z,99.90
2019-03-13T22:35:23.561Z,99.90
2019-03-13T22:37:51.982Z,99.90
2019-03-13T22:40:20.442Z,99.90
2019-03-13T22:42:48.844Z,99.90
2019-03-13T22:45:18.775Z,99.90
2019-03-13T22:47:47.268Z,99.90
2019-03-13T22:50:23.444Z,99.90
2019-03-13T22:52:51.847Z,99.90
2019-03-13T22:55:20.486Z,99.90
2019-03-13T22:57:48.954Z,99.90
2019-03-13T23:00:25.181Z,99.90
2019-03-13T23:02:53.830Z,99.90
2019-03-13T23:05:22.354Z,99.90
2019-03-13T23:07:50.773Z,99.90
2019-03-13T23:10:24.872Z,99.90
2019-03-13T23:12:53.288Z,99.90
2019-03-13T23:15:21.815Z,99.90
2019-03-13T23:17:50.211Z,99.90
2019-03-13T23:20:18.607Z,99.90
2019-03-13T23:22:47.009Z,99.90
2019-03-13T23:25:15.407Z,99.90
2019-03-13T23:27:43.835Z,99.90
2019-03-13T23:30:12.777Z,99.90
2019-03-13T23:32:41.201Z,99.90
2019-03-13T23:35:09.684Z,99.90
2019-03-13T23:37:38.074Z,99.90
2019-03-13T23:40:08.225Z,99.90
2019-03-13T23:42:36.628Z,99.90
2019-03-13T23:45:11.499Z,99.90
2019-03-13T23:47:39.899Z,99.90
2019-03-13T23:50:10.138Z,99.90
2019-03-13T23:52:38.553Z,99.90
2019-03-13T23:55:07.696Z,99.90
2019-03-13T23:57:36.070Z,99.90
